Time;durP1;ratioP1;P1;durP2;ratioP2;P2;SDS_P1;SDS_P2;PMS_P1;PMS_P2;Temp;Humidity;BMP_temperature;BMP_pressure;BME280_temperature;BME280_humidity;BME280_pressure;Samples;Min_cycle;Max_cycle;Signal;HPM_P1;HPM_P2
2022/03/01 00:02:16;;;;;;;23.80;11.83;;;2.20;99.90;;;;;;4920751;29;20191;-72
2022/03/01 00:04:42;;;;;;;23.33;11.80;;;2.20;99.90;;;;;;4917416;29;20182;-72
2022/03/01 00:07:07;;;;;;;22.07;11.33;;;2.20;99.90;;;;;;4919149;29;20212;-72
2022/03/01 00:09:34;;;;;;;26.03;11.53;;;2.10;99.90;;;;;;4916207;29;20210;-72
2022/03/01 00:11:59;;;;;;;24.27;10.97;;;2.10;99.90;;;;;;4916983;29;20290;-72
2022/03/01 00:14:25;;;;;;;23.67;11.67;;;2.10;99.90;;;;;;4918850;29;20251;-72
2022/03/01 00:16:51;;;;;;;22.07;11.50;;;2.00;99.90;;;;;;4920177;29;20725;-72
2022/03/01 00:19:16;;;;;;;21.77;11.10;;;2.00;99.90;;;;;;4914529;29;20442;-71
2022/03/01 00:21:42;;;;;;;24.50;10.80;;;2.00;99.90;;;;;;4920926;29;20192;-72
2022/03/01 00:24:07;;;;;;;22.27;11.30;;;2.00;99.90;;;;;;4919851;29;20182;-72
2022/03/01 00:26:33;;;;;;;22.87;10.53;;;2.00;99.90;;;;;;4918963;29;20209;-73
2022/03/01 00:28:59;;;;;;;22.43;10.60;;;2.00;99.90;;;;;;4912901;29;20193;-72
2022/03/01 00:31:24;;;;;;;18.83;10.77;;;2.00;99.90;;;;;;4917539;29;20188;-71
2022/03/01 00:33:50;;;;;;;19.73;10.50;;;1.90;99.90;;;;;;4923453;29;20244;-72
2022/03/01 00:36:16;;;;;;;21.43;11.37;;;2.00;99.90;;;;;;4918697;29;20227;-72
2022/03/01 00:38:41;;;;;;;20.23;10.13;;;2.00;99.90;;;;;;4919628;29;20191;-72
2022/03/01 00:41:07;;;;;;;22.83;9.97;;;2.00;99.90;;;;;;4915212;29;20188;-71
2022/03/01 00:43:33;;;;;;;24.13;11.47;;;1.90;99.90;;;;;;4919240;29;20264;-72
2022/03/01 00:45:59;;;;;;;21.10;10.93;;;1.90;99.90;;;;;;4918322;29;20299;-72
2022/03/01 00:48:24;;;;;;;21.27;10.57;;;1.90;99.90;;;;;;4918875;29;20275;-72
2022/03/01 00:50:50;;;;;;;19.00;10.10;;;1.90;99.90;;;;;;4916164;29;20287;-72
2022/03/01 00:53:16;;;;;;;18.13;9.70;;;1.90;99.90;;;;;;4917316;29;20239;-72
2022/03/01 00:55:42;;;;;;;18.67;9.70;;;1.90;99.90;;;;;;4921565;29;20219;-72
2022/03/01 00:58:08;;;;;;;20.57;10.00;;;1.90;99.90;;;;;;4922334;29;20259;-72
2022/03/01 01:00:34;;;;;;;19.37;9.50;;;1.90;99.90;;;;;;4916699;29;20628;-71
2022/03/01 01:03:00;;;;;;;15.97;8.97;;;1.80;99.90;;;;;;4920900;29;20183;-72
2022/03/01 01:05:26;;;;;;;20.60;9.97;;;1.80;99.90;;;;;;4917854;29;20202;-72
2022/03/01 01:07:52;;;;;;;17.30;9.07;;;1.70;99.90;;;;;;4918188;29;20196;-72
2022/03/01 01:10:18;;;;;;;18.00;9.00;;;1.70;99.90;;;;;;4919723;29;20285;-72
2022/03/01 01:12:44;;;;;;;18.83;9.23;;;1.60;99.90;;;;;;4917722;29;20189;-73
2022/03/01 01:15:10;;;;;;;17.63;9.17;;;1.60;99.90;;;;;;4917657;29;20192;-72
2022/03/01 01:17:36;;;;;;;20.00;9.67;;;1.60;99.90;;;;;;4919195;29;20203;-72
2022/03/01 01:20:05;;;;;;;19.40;8.97;;;1.60;99.90;;;;;;4913638;29;20188;-72
2022/03/01 01:22:39;;;;;;;15.67;8.30;;;1.50;99.90;;;;;;4915299;29;20180;-72
2022/03/01 01:25:13;;;;;;;17.13;8.00;;;1.50;99.90;;;;;;4916253;29;20175;-72
2022/03/01 01:27:42;;;;;;;15.23;8.27;;;1.50;99.90;;;;;;4917734;29;20277;-71
2022/03/01 01:30:11;;;;;;;20.03;8.50;;;1.50;99.90;;;;;;4914336;29;20196;-72
2022/03/01 01:32:37;;;;;;;16.43;7.73;;;1.50;99.90;;;;;;4919664;29;20183;-72
2022/03/01 01:35:04;;;;;;;13.80;7.43;;;1.50;99.90;;;;;;4921049;29;20184;-71
2022/03/01 01:37:30;;;;;;;17.40;8.00;;;1.50;99.90;;;;;;4917741;29;20285;-71
2022/03/01 01:39:56;;;;;;;15.83;7.47;;;1.50;99.90;;;;;;4920351;29;20184;-72
2022/03/01 01:42:22;;;;;;;15.93;7.73;;;1.40;99.90;;;;;;4919590;29;20183;-72
2022/03/01 01:44:47;;;;;;;15.73;7.80;;;1.40;99.90;;;;;;4921107;29;20183;-72
2022/03/01 01:47:13;;;;;;;17.23;7.97;;;1.40;99.90;;;;;;4915731;29;20206;-72
2022/03/01 01:49:39;;;;;;;12.33;7.50;;;1.40;99.90;;;;;;4915304;29;20624;-72
2022/03/01 01:52:05;;;;;;;18.00;8.17;;;1.40;99.90;;;;;;4917637;29;20262;-73
2022/03/01 01:54:31;;;;;;;13.43;7.13;;;1.40;99.90;;;;;;4916565;29;20187;-72
2022/03/01 01:56:57;;;;;;;14.90;7.87;;;1.40;99.90;;;;;;4916497;29;20221;-72
2022/03/01 01:59:22;;;;;;;15.13;8.20;;;1.40;99.90;;;;;;4916979;29;20207;-73
2022/03/01 02:01:48;;;;;;;16.30;8.37;;;1.40;99.90;;;;;;4919066;29;20226;-75
2022/03/01 02:04:14;;;;;;;18.07;7.87;;;1.40;99.90;;;;;;4918128;29;20184;-73
2022/03/01 02:06:53;;;;;;;14.60;7.97;;;1.40;99.90;;;;;;4916918;29;20204;-72
2022/03/01 02:09:20;;;;;;;13.97;7.37;;;1.50;99.90;;;;;;4914505;29;20255;-73
2022/03/01 02:11:45;;;;;;;15.60;8.43;;;1.50;99.90;;;;;;4918351;29;20184;-73
2022/03/01 02:14:11;;;;;;;17.83;7.57;;;1.50;99.90;;;;;;4914622;29;20206;-73
2022/03/01 02:16:38;;;;;;;16.93;8.00;;;1.50;99.90;;;;;;4914044;29;20212;-72
2022/03/01 02:19:05;;;;;;;14.87;7.90;;;1.50;99.90;;;;;;4919922;29;20534;-72
2022/03/01 02:21:31;;;;;;;14.83;7.70;;;1.60;99.90;;;;;;4919441;29;20189;-72
2022/03/01 02:23:56;;;;;;;17.60;7.83;;;1.60;99.90;;;;;;4914111;29;20198;-72
2022/03/01 02:26:22;;;;;;;15.40;7.30;;;1.60;99.90;;;;;;4913570;29;20228;-72
2022/03/01 02:28:48;;;;;;;19.33;8.37;;;1.60;99.90;;;;;;4915558;29;20223;-73
2022/03/01 02:31:13;;;;;;;16.03;7.90;;;1.60;99.90;;;;;;4916773;29;20594;-72
2022/03/01 02:33:39;;;;;;;18.07;8.00;;;1.60;99.90;;;;;;4919188;29;20182;-71
2022/03/01 02:36:05;;;;;;;15.77;7.57;;;1.60;99.90;;;;;;4922409;29;20307;-73
2022/03/01 02:38:30;;;;;;;15.40;8.17;;;1.60;99.90;;;;;;4919305;29;20178;-73
2022/03/01 02:40:56;;;;;;;15.03;7.13;;;1.60;99.90;;;;;;4921766;29;20668;-73
2022/03/01 02:43:21;;;;;;;18.43;8.47;;;1.60;99.90;;;;;;4920264;29;20272;-73
2022/03/01 02:45:47;;;;;;;17.87;8.27;;;1.60;99.90;;;;;;4920353;29;20390;-73
2022/03/01 02:48:12;;;;;;;14.87;8.10;;;1.50;99.90;;;;;;4927145;29;20183;-73
2022/03/01 02:50:38;;;;;;;13.10;8.10;;;1.50;99.90;;;;;;4918195;29;20180;-73
2022/03/01 02:53:04;;;;;;;16.23;8.13;;;1.50;99.90;;;;;;4917428;29;20265;-72
2022/03/01 02:55:29;;;;;;;19.47;7.73;;;1.50;99.90;;;;;;4921226;29;20286;-73
2022/03/01 02:57:55;;;;;;;16.13;8.40;;;1.50;99.90;;;;;;4922396;29;20199;-73
2022/03/01 03:00:21;;;;;;;17.43;8.93;;;1.50;99.90;;;;;;4932364;28;20223;-73
2022/03/01 03:02:46;;;;;;;15.10;7.63;;;1.40;99.90;;;;;;4920610;29;20263;-74
2022/03/01 03:05:12;;;;;;;16.97;7.67;;;1.40;99.90;;;;;;4917108;29;20243;-73
2022/03/01 03:07:38;;;;;;;14.43;7.97;;;1.40;99.90;;;;;;4917424;29;20230;-73
2022/03/01 03:10:04;;;;;;;12.43;7.37;;;1.40;99.90;;;;;;4917027;29;20236;-73
2022/03/01 03:12:30;;;;;;;16.27;7.67;;;1.40;99.90;;;;;;4917159;29;20176;-74
2022/03/01 03:14:56;;;;;;;15.27;8.43;;;1.40;99.90;;;;;;4916950;29;20173;-73
2022/03/01 03:17:22;;;;;;;16.90;8.73;;;1.40;99.90;;;;;;4916949;29;20231;-73
2022/03/01 03:19:48;;;;;;;14.27;8.10;;;1.30;99.90;;;;;;4923707;29;20207;-73
2022/03/01 03:22:14;;;;;;;14.63;8.03;;;1.30;99.90;;;;;;4926223;29;20176;-73
2022/03/01 03:24:40;;;;;;;17.33;8.57;;;1.30;99.90;;;;;;4917028;29;20180;-73
2022/03/01 03:27:05;;;;;;;14.27;7.83;;;1.30;99.90;;;;;;4917446;29;20271;-72
2022/03/01 03:29:31;;;;;;;16.23;8.33;;;1.20;99.90;;;;;;4916441;29;20228;-74
2022/03/01 03:31:57;;;;;;;15.23;8.50;;;1.20;99.90;;;;;;4903289;29;20177;-74
2022/03/01 03:34:23;;;;;;;14.80;8.57;;;1.20;99.90;;;;;;4913098;29;20176;-73
2022/03/01 03:36:50;;;;;;;17.57;8.37;;;1.20;99.90;;;;;;4916663;29;20223;-74
2022/03/01 03:39:16;;;;;;;20.37;9.90;;;1.20;99.90;;;;;;4917984;29;20180;-72
2022/03/01 03:41:41;;;;;;;16.50;8.60;;;1.20;99.90;;;;;;4917161;29;20227;-73
2022/03/01 03:44:07;;;;;;;16.60;8.60;;;1.20;99.90;;;;;;4917837;29;20184;-73
2022/03/01 03:46:33;;;;;;;19.17;9.30;;;1.20;99.90;;;;;;4916141;29;20200;-73
2022/03/01 03:48:59;;;;;;;18.73;9.40;;;1.20;99.90;;;;;;4916267;29;20601;-73
2022/03/01 03:51:25;;;;;;;20.37;9.60;;;1.10;99.90;;;;;;4916381;29;20195;-73
2022/03/01 03:53:51;;;;;;;17.27;9.07;;;1.10;99.90;;;;;;4930896;29;20239;-72
2022/03/01 03:56:17;;;;;;;17.50;8.60;;;1.10;99.90;;;;;;4934628;29;20354;-73
2022/03/01 03:58:43;;;;;;;18.63;8.53;;;1.10;99.90;;;;;;4929900;29;20278;-74
2022/03/01 04:01:09;;;;;;;18.37;9.70;;;1.10;99.90;;;;;;4927141;29;20267;-72
2022/03/01 04:03:34;;;;;;;18.83;9.83;;;1.00;99.90;;;;;;4916244;29;20224;-73
2022/03/01 04:06:00;;;;;;;14.90;8.70;;;1.00;99.90;;;;;;4916183;29;20297;-73
2022/03/01 04:08:26;;;;;;;20.43;10.10;;;1.10;99.90;;;;;;4916152;29;20191;-73
2022/03/01 04:10:51;;;;;;;14.47;8.93;;;1.00;99.90;;;;;;4916693;29;20176;-73
2022/03/01 04:13:17;;;;;;;20.43;9.80;;;1.00;99.90;;;;;;4915934;29;20668;-72
2022/03/01 04:15:42;;;;;;;21.37;10.07;;;1.00;99.90;;;;;;4914997;29;20212;-73
2022/03/01 04:18:08;;;;;;;18.13;9.27;;;1.10;99.90;;;;;;4925906;29;20202;-72
2022/03/01 04:20:34;;;;;;;21.83;10.40;;;1.00;99.90;;;;;;4916466;29;20198;-73
2022/03/01 04:22:59;;;;;;;20.77;9.80;;;1.00;99.90;;;;;;4927597;29;20220;-73
2022/03/01 04:25:25;;;;;;;19.20;9.10;;;1.00;99.90;;;;;;4918446;29;20176;-73
2022/03/01 04:27:51;;;;;;;17.10;9.23;;;1.00;99.90;;;;;;4922996;29;20178;-73
2022/03/01 04:30:17;;;;;;;15.87;9.00;;;1.00;99.90;;;;;;4936287;29;20519;-74
2022/03/01 04:32:45;;;;;;;17.53;9.47;;;1.00;99.90;;;;;;4934590;29;20172;-73
2022/03/01 04:35:11;;;;;;;17.10;9.87;;;1.00;99.90;;;;;;4934926;29;20730;-73
2022/03/01 04:37:41;;;;;;;21.10;9.80;;;1.00;99.90;;;;;;4936024;29;20199;-73
2022/03/01 04:40:08;;;;;;;19.43;9.53;;;1.00;99.90;;;;;;4935183;29;20623;-74
2022/03/01 04:42:34;;;;;;;18.53;9.70;;;1.00;99.90;;;;;;4934401;29;20184;-73
2022/03/01 04:45:01;;;;;;;19.70;8.93;;;1.00;99.90;;;;;;4915743;29;20203;-73
2022/03/01 04:47:26;;;;;;;18.67;9.87;;;1.10;99.90;;;;;;4915790;29;20207;-73
2022/03/01 04:49:52;;;;;;;19.20;9.43;;;1.10;99.90;;;;;;4916021;29;20191;-74
2022/03/01 04:52:18;;;;;;;20.40;10.03;;;1.10;99.90;;;;;;4915274;29;20187;-74
2022/03/01 04:54:45;;;;;;;16.30;9.40;;;1.10;99.90;;;;;;4916853;29;20180;-73
2022/03/01 04:57:10;;;;;;;19.27;9.53;;;1.10;99.90;;;;;;4932123;29;20215;-73
2022/03/01 04:59:36;;;;;;;20.00;9.43;;;1.10;99.90;;;;;;4933930;29;20195;-74
2022/03/01 05:02:02;;;;;;;20.27;9.13;;;1.10;99.90;;;;;;4927156;29;20191;-73
2022/03/01 05:04:28;;;;;;;18.57;9.10;;;1.10;99.90;;;;;;4926158;29;20183;-73
2022/03/01 05:06:54;;;;;;;18.47;9.27;;;1.10;99.90;;;;;;4916614;29;20702;-73
2022/03/01 05:09:23;;;;;;;19.70;10.50;;;1.10;99.90;;;;;;4916697;29;20188;-74
2022/03/01 05:11:50;;;;;;;18.47;10.00;;;1.10;99.90;;;;;;4915397;29;20191;-74
2022/03/01 05:14:16;;;;;;;17.47;9.87;;;1.10;99.90;;;;;;4914568;29;20184;-72
2022/03/01 05:16:41;;;;;;;18.90;9.03;;;1.10;99.90;;;;;;4916271;29;20690;-71
2022/03/01 05:19:09;;;;;;;16.37;9.00;;;1.00;99.90;;;;;;4915505;29;20195;-71
2022/03/01 05:21:37;;;;;;;23.53;10.53;;;1.00;99.90;;;;;;4922430;29;20267;-71
2022/03/01 05:24:03;;;;;;;18.17;9.83;;;1.00;99.90;;;;;;4914529;29;20184;-72
2022/03/01 05:26:29;;;;;;;18.80;10.40;;;1.00;99.90;;;;;;4918297;29;20240;-72
2022/03/01 05:28:55;;;;;;;21.93;10.50;;;1.00;99.90;;;;;;4925356;29;20267;-72
2022/03/01 05:31:21;;;;;;;21.07;9.77;;;1.00;99.90;;;;;;4914418;29;20180;-71
2022/03/01 05:33:47;;;;;;;21.17;10.17;;;0.90;99.90;;;;;;4910044;29;20194;-72
2022/03/01 05:36:14;;;;;;;19.43;9.87;;;1.00;99.90;;;;;;4923570;29;20239;-72
2022/03/01 05:38:40;;;;;;;20.50;10.20;;;1.00;99.90;;;;;;4921563;29;20180;-72
2022/03/01 05:41:06;;;;;;;21.07;9.97;;;1.00;99.90;;;;;;4914313;29;20192;-73
2022/03/01 05:43:32;;;;;;;21.77;10.03;;;1.00;99.90;;;;;;4914600;29;20180;-71
2022/03/01 05:45:58;;;;;;;24.07;10.00;;;1.00;99.90;;;;;;4914116;29;20290;-72
2022/03/01 05:48:24;;;;;;;18.53;9.13;;;1.00;99.90;;;;;;4915707;29;20279;-71
2022/03/01 05:50:49;;;;;;;17.57;9.77;;;1.00;99.90;;;;;;4915904;29;20187;-72
2022/03/01 05:53:15;;;;;;;18.77;9.20;;;1.00;99.90;;;;;;4914286;29;20188;-72
2022/03/01 05:55:41;;;;;;;16.67;9.37;;;1.10;99.90;;;;;;4914325;29;20231;-72
2022/03/01 05:58:07;;;;;;;18.57;10.07;;;1.10;99.90;;;;;;4914055;29;20664;-72
2022/03/01 06:00:32;;;;;;;20.67;10.73;;;1.10;99.90;;;;;;4914606;29;20204;-72
2022/03/01 06:02:58;;;;;;;20.00;9.90;;;1.10;99.90;;;;;;4915788;29;20212;-72
2022/03/01 06:05:24;;;;;;;18.40;10.00;;;1.00;99.90;;;;;;4914006;29;20184;-72
2022/03/01 06:07:50;;;;;;;18.67;9.87;;;1.10;99.90;;;;;;4914352;29;20196;-72
2022/03/01 06:10:15;;;;;;;18.00;9.60;;;1.00;99.90;;;;;;4940839;28;20185;-72
2022/03/01 06:12:41;;;;;;;19.37;9.20;;;1.00;99.90;;;;;;4917619;29;20188;-72
2022/03/01 06:15:08;;;;;;;19.50;9.63;;;1.00;99.90;;;;;;4926962;29;20184;-72
2022/03/01 06:17:35;;;;;;;19.63;9.80;;;1.10;99.90;;;;;;4924152;29;20218;-71
2022/03/01 06:20:01;;;;;;;20.67;10.67;;;1.10;99.90;;;;;;4924990;29;20597;-72
2022/03/01 06:22:27;;;;;;;18.53;10.07;;;1.10;99.90;;;;;;4924699;29;20179;-72
2022/03/01 06:24:55;;;;;;;18.33;10.17;;;1.10;99.90;;;;;;4931964;29;20263;-72
2022/03/01 06:27:21;;;;;;;19.43;9.87;;;1.00;99.90;;;;;;4915102;29;20208;-71
2022/03/01 06:29:47;;;;;;;21.83;10.30;;;1.00;99.90;;;;;;4920207;29;20176;-72
2022/03/01 06:32:13;;;;;;;23.40;11.13;;;1.00;99.90;;;;;;4925696;29;20192;-72
2022/03/01 06:34:38;;;;;;;18.90;10.77;;;1.00;99.90;;;;;;4928737;29;20267;-71
2022/03/01 06:37:04;;;;;;;18.07;9.93;;;1.00;99.90;;;;;;4936729;29;20212;-71
2022/03/01 06:39:32;;;;;;;24.30;11.70;;;1.00;99.90;;;;;;4918010;29;20207;-72
2022/03/01 06:41:58;;;;;;;19.13;10.83;;;0.90;99.90;;;;;;4917976;29;20286;-72
2022/03/01 06:44:24;;;;;;;20.93;10.23;;;1.00;99.90;;;;;;4919902;29;20223;-72
2022/03/01 06:46:49;;;;;;;21.03;10.80;;;1.00;99.90;;;;;;4917297;29;20235;-73
2022/03/01 06:49:15;;;;;;;20.27;10.63;;;1.10;99.90;;;;;;4918473;29;20189;-71
2022/03/01 06:51:40;;;;;;;20.93;11.03;;;1.10;99.90;;;;;;4923261;29;20175;-72
2022/03/01 06:54:06;;;;;;;22.53;10.73;;;1.10;99.90;;;;;;4919584;29;20195;-71
2022/03/01 06:56:32;;;;;;;20.60;10.53;;;1.10;99.90;;;;;;4917796;29;20230;-71
2022/03/01 06:58:57;;;;;;;21.90;10.80;;;1.10;99.90;;;;;;4921468;29;20260;-72
2022/03/01 07:01:23;;;;;;;20.93;10.97;;;1.10;99.90;;;;;;4921196;29;20207;-72
2022/03/01 07:03:48;;;;;;;21.50;11.30;;;1.10;99.90;;;;;;4920832;29;20247;-72
2022/03/01 07:06:14;;;;;;;20.33;10.03;;;1.10;99.90;;;;;;4920312;29;20216;-71
2022/03/01 07:08:40;;;;;;;18.17;10.43;;;1.10;99.90;;;;;;4920200;29;20203;-71
2022/03/01 07:11:05;;;;;;;20.80;10.33;;;1.20;99.90;;;;;;4918432;29;20250;-72
2022/03/01 07:13:31;;;;;;;18.77;10.00;;;1.30;99.90;;;;;;4918170;29;20212;-71
2022/03/01 07:15:57;;;;;;;23.30;11.13;;;1.30;99.90;;;;;;4922382;29;20699;-72
2022/03/01 07:18:22;;;;;;;19.80;10.80;;;1.30;99.90;;;;;;4920043;29;20180;-72
2022/03/01 07:20:48;;;;;;;22.70;11.37;;;1.30;99.90;;;;;;4918828;29;20283;-71
2022/03/01 07:23:14;;;;;;;18.63;10.00;;;1.40;99.90;;;;;;4917484;29;20216;-71
2022/03/01 07:25:39;;;;;;;19.77;11.47;;;1.40;99.90;;;;;;4914225;29;20227;-73
2022/03/01 07:28:05;;;;;;;20.10;10.70;;;1.50;99.90;;;;;;4932333;29;20196;-71
2022/03/01 07:30:31;;;;;;;18.37;10.87;;;1.60;99.90;;;;;;4912413;29;20196;-71
2022/03/01 07:32:58;;;;;;;19.77;10.83;;;1.60;99.90;;;;;;4916564;29;20259;-71
2022/03/01 07:35:24;;;;;;;23.93;11.43;;;1.60;99.90;;;;;;4916761;29;20195;-72
2022/03/01 07:37:51;;;;;;;22.37;11.47;;;1.60;99.90;;;;;;4916692;29;20196;-72
2022/03/01 07:40:18;;;;;;;21.53;10.93;;;1.70;99.90;;;;;;4923050;29;20187;-71
2022/03/01 07:42:44;;;;;;;19.70;10.73;;;1.70;99.90;;;;;;4917558;29;20189;-72
2022/03/01 07:45:10;;;;;;;18.87;10.77;;;1.70;99.90;;;;;;4921534;29;20191;-72
2022/03/01 07:47:36;;;;;;;19.57;11.43;;;1.80;99.90;;;;;;4917889;29;20213;-72
2022/03/01 07:50:04;;;;;;;23.17;11.20;;;1.80;99.90;;;;;;4922482;29;20548;-71
2022/03/01 07:52:29;;;;;;;23.07;11.70;;;1.80;99.90;;;;;;4920200;29;20649;-72
2022/03/01 07:54:55;;;;;;;23.50;12.73;;;1.90;99.90;;;;;;4919054;29;20227;-72
2022/03/01 07:57:20;;;;;;;22.47;10.93;;;1.90;99.90;;;;;;4917120;29;20212;-72
2022/03/01 07:59:46;;;;;;;17.93;10.77;;;1.90;99.90;;;;;;4920387;29;20204;-73
2022/03/01 08:02:11;;;;;;;20.33;11.70;;;2.00;99.90;;;;;;4917259;29;20283;-72
2022/03/01 08:04:38;;;;;;;22.50;12.13;;;2.00;99.90;;;;;;4915286;29;20188;-71
2022/03/01 08:07:04;;;;;;;18.27;11.10;;;2.00;99.90;;;;;;4919220;29;20208;-71
2022/03/01 08:09:29;;;;;;;20.60;10.87;;;2.00;99.90;;;;;;4917584;29;20191;-71
2022/03/01 08:11:55;;;;;;;23.87;12.00;;;2.10;99.90;;;;;;4915412;29;20204;-72
2022/03/01 08:14:21;;;;;;;21.00;11.20;;;2.20;99.90;;;;;;4916563;29;20210;-72
2022/03/01 08:16:46;;;;;;;18.10;10.37;;;2.20;99.90;;;;;;4916640;29;20228;-73
2022/03/01 08:19:12;;;;;;;18.67;10.97;;;2.30;99.90;;;;;;4914660;29;20243;-71
2022/03/01 08:21:37;;;;;;;21.83;10.50;;;2.40;99.90;;;;;;4921607;29;20179;-71
2022/03/01 08:24:03;;;;;;;22.57;11.20;;;2.40;99.90;;;;;;4917898;29;20190;-71
2022/03/01 08:26:29;;;;;;;19.53;10.67;;;2.50;99.90;;;;;;4914998;29;20212;-72
2022/03/01 08:28:54;;;;;;;19.73;11.23;;;2.60;99.90;;;;;;4915377;29;20192;-71
2022/03/01 08:31:20;;;;;;;20.13;11.53;;;2.70;99.90;;;;;;4914650;29;20243;-71
2022/03/01 08:33:46;;;;;;;23.13;11.33;;;2.80;99.90;;;;;;4916740;29;20193;-71
2022/03/01 08:36:13;;;;;;;21.97;10.97;;;2.80;99.90;;;;;;4921113;29;20277;-71
2022/03/01 08:38:39;;;;;;;20.20;11.80;;;2.90;99.90;;;;;;4917064;29;20249;-72
2022/03/01 08:41:05;;;;;;;16.93;10.30;;;3.00;99.90;;;;;;4915519;29;20590;-72
2022/03/01 08:43:30;;;;;;;21.37;10.93;;;3.10;99.90;;;;;;4921320;29;20251;-72
2022/03/01 08:45:56;;;;;;;18.80;10.83;;;3.20;99.90;;;;;;4916901;29;20299;-72
2022/03/01 08:48:22;;;;;;;19.77;11.10;;;3.20;99.90;;;;;;4920569;29;20195;-76
2022/03/01 08:50:47;;;;;;;17.30;10.30;;;3.30;99.90;;;;;;4918816;29;20185;-72
2022/03/01 08:53:13;;;;;;;19.07;10.93;;;3.30;99.90;;;;;;4917426;29;20254;-71
2022/03/01 08:55:39;;;;;;;20.73;11.30;;;3.40;99.90;;;;;;4921861;29;20200;-71
2022/03/01 08:58:05;;;;;;;18.80;10.63;;;3.40;99.90;;;;;;4922060;29;20253;-71
2022/03/01 09:00:30;;;;;;;19.20;10.90;;;3.40;99.90;;;;;;4919864;29;20245;-71
2022/03/01 09:02:57;;;;;;;16.90;9.90;;;3.50;99.90;;;;;;4916542;29;20313;-71
2022/03/01 09:05:23;;;;;;;17.40;10.37;;;3.60;99.90;;;;;;4919169;29;20195;-71
2022/03/01 09:07:48;;;;;;;17.60;10.47;;;3.60;99.90;;;;;;4918074;29;20196;-71
2022/03/01 09:10:14;;;;;;;18.13;10.83;;;3.70;99.90;;;;;;4919079;29;20192;-72
2022/03/01 09:12:40;;;;;;;19.87;11.27;;;3.70;99.90;;;;;;4914294;29;20194;-71
2022/03/01 09:15:06;;;;;;;18.77;10.60;;;3.80;99.90;;;;;;4915763;29;20528;-71
2022/03/01 09:17:32;;;;;;;21.27;10.27;;;3.80;99.90;;;;;;4917237;29;20241;-71
2022/03/01 09:19:58;;;;;;;18.63;10.50;;;3.90;99.90;;;;;;4909188;29;20194;-72
2022/03/01 09:22:23;;;;;;;19.70;10.53;;;3.90;99.90;;;;;;4918845;29;20354;-71
2022/03/01 09:24:50;;;;;;;23.17;10.07;;;4.00;99.90;;;;;;4917199;29;20656;-71
2022/03/01 09:27:15;;;;;;;18.00;10.57;;;4.00;99.90;;;;;;4917074;29;20218;-72
2022/03/01 09:29:41;;;;;;;18.33;10.13;;;4.10;99.90;;;;;;4916131;29;20196;-71
2022/03/01 09:32:07;;;;;;;17.03;9.90;;;4.10;99.90;;;;;;4916693;29;20198;-71
2022/03/01 09:34:32;;;;;;;17.60;9.67;;;4.20;99.90;;;;;;4918142;29;20196;-71
2022/03/01 09:36:58;;;;;;;16.53;10.20;;;4.20;99.90;;;;;;4923395;29;20882;-72
2022/03/01 09:39:24;;;;;;;17.23;10.20;;;4.20;99.90;;;;;;4917872;29;20270;-71
2022/03/01 09:41:51;;;;;;;16.90;9.60;;;4.30;99.90;;;;;;4918669;29;20179;-71
2022/03/01 09:44:17;;;;;;;19.73;10.03;;;4.40;99.90;;;;;;4914996;29;20199;-72
2022/03/01 09:46:43;;;;;;;20.90;10.07;;;4.50;99.90;;;;;;4919505;29;20217;-71
2022/03/01 09:49:09;;;;;;;18.87;10.47;;;4.50;99.90;;;;;;4919129;29;20238;-70
2022/03/01 09:51:37;;;;;;;17.23;10.13;;;4.70;99.90;;;;;;4918355;29;20188;-71
2022/03/01 09:54:03;;;;;;;15.67;9.00;;;4.70;99.90;;;;;;4916764;29;20183;-72
2022/03/01 09:56:29;;;;;;;18.53;10.77;;;4.80;99.90;;;;;;4917457;29;20207;-71
2022/03/01 09:58:55;;;;;;;14.53;9.00;;;4.90;99.90;;;;;;4914679;29;20685;-71
2022/03/01 10:01:22;;;;;;;16.97;10.37;;;5.00;99.90;;;;;;4919908;29;20199;-72
2022/03/01 10:03:49;;;;;;;18.90;10.20;;;5.00;99.90;;;;;;4915240;29;20183;-71
2022/03/01 10:06:17;;;;;;;16.53;9.47;;;5.10;99.90;;;;;;4920726;29;20213;-71
2022/03/01 10:08:43;;;;;;;16.57;10.53;;;5.10;99.90;;;;;;4914556;29;20196;-71
2022/03/01 10:11:09;;;;;;;15.33;8.87;;;5.20;99.90;;;;;;4920551;29;20207;-71
2022/03/01 10:13:39;;;;;;;19.07;10.70;;;5.20;99.90;;;;;;4919068;29;20270;-71
2022/03/01 10:16:06;;;;;;;19.10;10.67;;;5.30;99.90;;;;;;4919430;29;20210;-71
2022/03/01 10:18:39;;;;;;;14.03;9.23;;;5.30;99.90;;;;;;4922432;29;20180;-71
2022/03/01 10:21:09;;;;;;;18.90;10.07;;;5.40;99.90;;;;;;4917533;29;20184;-71
2022/03/01 10:23:35;;;;;;;18.80;11.10;;;5.50;99.90;;;;;;4917043;29;20180;-71
2022/03/01 10:26:22;;;;;;;18.67;9.70;;;5.50;99.90;;;;;;4920630;29;20240;-71
2022/03/01 10:28:49;;;;;;;16.37;9.73;;;5.60;99.90;;;;;;4920378;29;20210;-71
2022/03/01 10:31:27;;;;;;;13.80;9.20;;;5.60;99.90;;;;;;4917961;29;20220;-71
2022/03/01 10:33:56;;;;;;;14.47;9.40;;;5.70;99.90;;;;;;4916846;29;20226;-71
2022/03/01 10:36:28;;;;;;;15.97;9.57;;;5.80;99.90;;;;;;4923898;29;20308;-71
2022/03/01 10:39:04;;;;;;;13.93;9.00;;;5.80;99.90;;;;;;4908444;29;20188;-71
2022/03/01 10:41:34;;;;;;;17.00;9.77;;;5.90;99.90;;;;;;4911343;29;20214;-71
2022/03/01 10:44:00;;;;;;;17.17;10.00;;;6.00;99.90;;;;;;4916166;29;20192;-72
2022/03/01 10:46:27;;;;;;;18.23;9.97;;;6.00;99.90;;;;;;4915184;29;20211;-71
2022/03/01 10:49:23;;;;;;;15.63;9.57;;;6.10;99.90;;;;;;4919810;29;20567;-72
2022/03/01 10:52:03;;;;;;;17.17;9.40;;;6.10;99.90;;;;;;4901149;29;20291;-71
2022/03/01 10:54:30;;;;;;;13.93;9.00;;;6.30;99.90;;;;;;4915547;29;20224;-72
2022/03/01 10:56:57;;;;;;;14.47;9.53;;;6.30;99.90;;;;;;4917146;29;20219;-72
2022/03/01 10:59:25;;;;;;;16.50;10.00;;;6.30;99.90;;;;;;4914442;29;20668;-71
2022/03/01 11:01:51;;;;;;;20.13;9.60;;;6.40;99.90;;;;;;4913223;29;20223;-71
2022/03/01 11:04:25;;;;;;;13.80;9.07;;;6.40;99.90;;;;;;4929661;28;20184;-71
2022/03/01 11:06:53;;;;;;;15.67;9.63;;;6.50;99.90;;;;;;4918904;29;20211;-71
2022/03/01 11:09:21;;;;;;;14.77;8.90;;;6.60;99.90;;;;;;4918810;29;20187;-71
2022/03/01 11:11:48;;;;;;;15.33;8.97;;;6.60;99.90;;;;;;4921982;29;20279;-73
2022/03/01 11:14:21;;;;;;;13.53;8.80;;;6.70;99.90;;;;;;4915306;29;20195;-71
2022/03/01 11:17:05;;;;;;;14.80;8.60;;;6.80;99.90;;;;;;4915337;29;20234;-73
2022/03/01 11:19:43;;;;;;;16.60;9.30;;;6.90;99.90;;;;;;4938444;29;20195;-71
2022/03/01 11:22:27;;;;;;;13.63;8.97;;;7.00;99.90;;;;;;4937305;29;20556;-71
2022/03/01 11:24:53;;;;;;;14.33;8.97;;;7.00;99.90;;;;;;4932329;28;20274;-71
2022/03/01 11:27:21;;;;;;;15.20;8.57;;;7.10;99.90;;;;;;4921178;29;20212;-71
2022/03/01 11:29:49;;;;;;;13.57;9.40;;;7.20;99.90;;;;;;4917813;29;20193;-71
2022/03/01 11:32:20;;;;;;;12.90;8.30;;;7.30;99.90;;;;;;4913267;29;20198;-71
2022/03/01 11:34:46;;;;;;;15.63;9.00;;;7.30;99.90;;;;;;4917250;29;20185;-72
2022/03/01 11:37:19;;;;;;;13.00;8.83;;;7.40;99.90;;;;;;4918962;29;20215;-72
2022/03/01 11:39:55;;;;;;;11.53;8.07;;;7.40;99.90;;;;;;4920231;29;20192;-71
2022/03/01 11:42:21;;;;;;;14.40;8.87;;;7.50;99.90;;;;;;4916304;29;20196;-71
2022/03/01 11:44:54;;;;;;;14.47;8.30;;;7.50;99.90;;;;;;4924716;29;20188;-73
2022/03/01 11:47:28;;;;;;;16.20;8.93;;;7.50;99.90;;;;;;4925393;29;20199;-71
2022/03/01 11:49:54;;;;;;;12.07;8.30;;;7.60;99.90;;;;;;4914827;29;20184;-72
2022/03/01 11:52:25;;;;;;;14.67;8.70;;;7.70;99.90;;;;;;4929173;29;20243;-72
2022/03/01 11:54:53;;;;;;;14.87;9.20;;;7.70;99.90;;;;;;4926768;29;20269;-71
2022/03/01 11:57:29;;;;;;;16.33;8.60;;;7.80;99.90;;;;;;4934602;29;20204;-72
2022/03/01 11:59:58;;;;;;;16.57;9.03;;;7.80;99.90;;;;;;4928635;29;20195;-71
2022/03/01 12:02:26;;;;;;;13.83;8.80;;;7.80;99.90;;;;;;4925135;29;20192;-72
2022/03/01 12:04:57;;;;;;;13.67;8.40;;;7.80;99.90;;;;;;4934090;29;20626;-72
2022/03/01 12:07:26;;;;;;;14.70;8.80;;;7.80;99.90;;;;;;4917126;29;20200;-72
2022/03/01 12:09:57;;;;;;;16.83;8.50;;;7.70;99.90;;;;;;4917287;29;20191;-71
2022/03/01 12:12:45;;;;;;;13.17;8.60;;;7.80;99.90;;;;;;4915817;29;20208;-71
2022/03/01 12:15:12;;;;;;;16.87;8.67;;;7.90;99.90;;;;;;4918642;29;20280;-73
2022/03/01 12:17:46;;;;;;;12.17;8.90;;;7.90;99.90;;;;;;4934898;29;20221;-72
2022/03/01 12:20:18;;;;;;;13.80;9.07;;;7.90;99.90;;;;;;4916143;29;20265;-73
2022/03/01 12:22:58;;;;;;;14.80;9.40;;;8.00;99.90;;;;;;4916577;29;20195;-72
2022/03/01 12:25:26;;;;;;;15.60;9.00;;;8.00;99.90;;;;;;4911360;29;20674;-72
2022/03/01 12:27:53;;;;;;;13.17;8.60;;;8.10;99.90;;;;;;4926115;29;20278;-72
2022/03/01 12:30:21;;;;;;;13.97;9.17;;;8.20;99.90;;;;;;4914091;29;20192;-72
2022/03/01 12:33:11;;;;;;;14.70;9.07;;;8.20;99.90;;;;;;4921889;29;20193;-72
2022/03/01 12:35:36;;;;;;;13.23;9.57;;;8.20;99.90;;;;;;4921458;29;20215;-72
2022/03/01 12:38:10;;;;;;;14.13;8.60;;;8.30;99.90;;;;;;4924721;29;20216;-72
2022/03/01 12:40:38;;;;;;;15.03;9.67;;;8.30;99.90;;;;;;4918485;29;20183;-72
2022/03/01 12:43:07;;;;;;;17.27;10.37;;;8.30;99.90;;;;;;4935008;29;20188;-72